sensor_id;sensor_type;location;lat;lon;timestamp;P1;durP1;ratioP1;P2;durP2;ratioP2
74959;SDS011;63518;49.572;1.106;2023-04-24T00:01:35;9.05;;;2.30;;
74959;SDS011;63518;49.572;1.106;2023-04-24T00:04:03;5.75;;;1.55;;
74959;SDS011;63518;49.572;1.106;2023-04-24T00:06:30;9.10;;;2.53;;
74959;SDS011;63518;49.572;1.106;2023-04-24T00:09:00;8.85;;;3.03;;
74959;SDS011;63518;49.572;1.106;2023-04-24T00:11:27;8.45;;;3.33;;
74959;SDS011;63518;49.572;1.106;2023-04-24T00:13:54;8.05;;;1.90;;
74959;SDS011;63518;49.572;1.106;2023-04-24T00:16:22;7.38;;;2.75;;
74959;SDS011;63518;49.572;1.106;2023-04-24T00:18:49;4.57;;;1.77;;
74959;SDS011;63518;49.572;1.106;2023-04-24T00:21:19;7.35;;;2.67;;
74959;SDS011;63518;49.572;1.106;2023-04-24T00:23:47;7.82;;;2.88;;
74959;SDS011;63518;49.572;1.106;2023-04-24T00:26:14;10.93;;;3.10;;
74959;SDS011;63518;49.572;1.106;2023-04-24T00:28:41;9.73;;;3.28;;
74959;SDS011;63518;49.572;1.106;2023-04-24T00:31:07;6.10;;;2.13;;
74959;SDS011;63518;49.572;1.106;2023-04-24T00:33:35;8.10;;;3.35;;
74959;SDS011;63518;49.572;1.106;2023-04-24T00:36:02;4.85;;;1.77;;
74959;SDS011;63518;49.572;1.106;2023-04-24T00:38:29;8.80;;;3.28;;
74959;SDS011;63518;49.572;1.106;2023-04-24T00:40:55;10.05;;;3.88;;
74959;SDS011;63518;49.572;1.106;2023-04-24T00:43:22;10.45;;;4.30;;
74959;SDS011;63518;49.572;1.106;2023-04-24T00:45:49;11.27;;;2.25;;
74959;SDS011;63518;49.572;1.106;2023-04-24T00:48:16;10.48;;;3.13;;
74959;SDS011;63518;49.572;1.106;2023-04-24T00:50:43;6.47;;;2.65;;
74959;SDS011;63518;49.572;1.106;2023-04-24T00:53:10;10.10;;;3.95;;
74959;SDS011;63518;49.572;1.106;2023-04-24T00:55:37;12.27;;;2.90;;
74959;SDS011;63518;49.572;1.106;2023-04-24T00:58:04;9.85;;;3.50;;
74959;SDS011;63518;49.572;1.106;2023-04-24T01:00:31;7.32;;;2.35;;
74959;SDS011;63518;49.572;1.106;2023-04-24T01:02:58;10.43;;;2.65;;
74959;SDS011;63518;49.572;1.106;2023-04-24T01:05:28;7.55;;;2.25;;
74959;SDS011;63518;49.572;1.106;2023-04-24T01:07:55;8.82;;;3.38;;
74959;SDS011;63518;49.572;1.106;2023-04-24T01:10:22;9.63;;;4.18;;
74959;SDS011;63518;49.572;1.106;2023-04-24T01:12:50;9.70;;;4.15;;
74959;SDS011;63518;49.572;1.106;2023-04-24T01:15:18;13.20;;;4.25;;
74959;SDS011;63518;49.572;1.106;2023-04-24T01:17:45;8.82;;;3.67;;
74959;SDS011;63518;49.572;1.106;2023-04-24T01:20:12;8.02;;;3.30;;
74959;SDS011;63518;49.572;1.106;2023-04-24T01:22:39;13.38;;;4.63;;
74959;SDS011;63518;49.572;1.106;2023-04-24T01:25:07;9.18;;;3.20;;
74959;SDS011;63518;49.572;1.106;2023-04-24T01:27:34;7.97;;;3.38;;
74959;SDS011;63518;49.572;1.106;2023-04-24T01:30:01;9.60;;;3.47;;
74959;SDS011;63518;49.572;1.106;2023-04-24T01:32:28;9.85;;;3.28;;
74959;SDS011;63518;49.572;1.106;2023-04-24T01:34:55;10.75;;;3.72;;
74959;SDS011;63518;49.572;1.106;2023-04-24T01:37:22;9.15;;;3.42;;
74959;SDS011;63518;49.572;1.106;2023-04-24T01:39:49;8.40;;;3.10;;
74959;SDS011;63518;49.572;1.106;2023-04-24T01:42:16;7.03;;;2.22;;
74959;SDS011;63518;49.572;1.106;2023-04-24T01:44:42;6.82;;;2.50;;
74959;SDS011;63518;49.572;1.106;2023-04-24T01:47:10;8.93;;;3.53;;
74959;SDS011;63518;49.572;1.106;2023-04-24T01:49:40;11.25;;;3.85;;
74959;SDS011;63518;49.572;1.106;2023-04-24T01:52:07;11.35;;;4.00;;
74959;SDS011;63518;49.572;1.106;2023-04-24T01:54:34;9.55;;;3.42;;
74959;SDS011;63518;49.572;1.106;2023-04-24T01:57:00;10.80;;;3.55;;
74959;SDS011;63518;49.572;1.106;2023-04-24T01:59:29;8.82;;;3.58;;
74959;SDS011;63518;49.572;1.106;2023-04-24T02:01:56;11.18;;;3.38;;
74959;SDS011;63518;49.572;1.106;2023-04-24T02:04:23;11.13;;;3.65;;
74959;SDS011;63518;49.572;1.106;2023-04-24T02:06:50;9.48;;;3.17;;
74959;SDS011;63518;49.572;1.106;2023-04-24T02:09:17;10.75;;;3.70;;
74959;SDS011;63518;49.572;1.106;2023-04-24T02:11:43;12.90;;;3.78;;
74959;SDS011;63518;49.572;1.106;2023-04-24T02:14:10;11.75;;;4.65;;
74959;SDS011;63518;49.572;1.106;2023-04-24T02:16:37;11.18;;;3.40;;
74959;SDS011;63518;49.572;1.106;2023-04-24T02:19:04;10.38;;;3.83;;
74959;SDS011;63518;49.572;1.106;2023-04-24T02:21:31;8.60;;;3.13;;
74959;SDS011;63518;49.572;1.106;2023-04-24T02:23:59;12.70;;;3.88;;
74959;SDS011;63518;49.572;1.106;2023-04-24T02:26:26;10.48;;;3.22;;
74959;SDS011;63518;49.572;1.106;2023-04-24T02:28:53;8.68;;;3.10;;
74959;SDS011;63518;49.572;1.106;2023-04-24T02:31:20;8.73;;;3.13;;
74959;SDS011;63518;49.572;1.106;2023-04-24T02:33:46;8.38;;;2.85;;
74959;SDS011;63518;49.572;1.106;2023-04-24T02:36:13;9.20;;;3.13;;
74959;SDS011;63518;49.572;1.106;2023-04-24T02:38:40;9.90;;;3.20;;
74959;SDS011;63518;49.572;1.106;2023-04-24T02:41:07;11.07;;;3.70;;
74959;SDS011;63518;49.572;1.106;2023-04-24T02:43:33;13.18;;;4.05;;
74959;SDS011;63518;49.572;1.106;2023-04-24T02:46:00;10.68;;;3.92;;
74959;SDS011;63518;49.572;1.106;2023-04-24T02:48:27;10.95;;;3.80;;
74959;SDS011;63518;49.572;1.106;2023-04-24T02:50:54;8.18;;;3.58;;
74959;SDS011;63518;49.572;1.106;2023-04-24T02:53:21;12.75;;;3.92;;
74959;SDS011;63518;49.572;1.106;2023-04-24T02:55:49;9.13;;;3.83;;
74959;SDS011;63518;49.572;1.106;2023-04-24T02:58:15;10.38;;;3.25;;
74959;SDS011;63518;49.572;1.106;2023-04-24T03:00:43;8.35;;;3.75;;
74959;SDS011;63518;49.572;1.106;2023-04-24T03:03:10;14.63;;;3.47;;
74959;SDS011;63518;49.572;1.106;2023-04-24T03:05:37;11.88;;;4.85;;
74959;SDS011;63518;49.572;1.106;2023-04-24T03:08:04;12.13;;;4.57;;
74959;SDS011;63518;49.572;1.106;2023-04-24T03:10:31;7.68;;;2.85;;
74959;SDS011;63518;49.572;1.106;2023-04-24T03:12:58;13.10;;;3.47;;
74959;SDS011;63518;49.572;1.106;2023-04-24T03:15:25;13.80;;;4.15;;
74959;SDS011;63518;49.572;1.106;2023-04-24T03:17:53;8.55;;;3.85;;
74959;SDS011;63518;49.572;1.106;2023-04-24T03:20:22;10.30;;;3.78;;
74959;SDS011;63518;49.572;1.106;2023-04-24T03:22:49;11.52;;;4.25;;
74959;SDS011;63518;49.572;1.106;2023-04-24T03:25:16;9.93;;;4.00;;
74959;SDS011;63518;49.572;1.106;2023-04-24T03:27:42;10.38;;;4.43;;
74959;SDS011;63518;49.572;1.106;2023-04-24T03:30:09;8.23;;;2.88;;
74959;SDS011;63518;49.572;1.106;2023-04-24T03:32:36;9.40;;;3.60;;
74959;SDS011;63518;49.572;1.106;2023-04-24T03:35:06;12.05;;;5.32;;
74959;SDS011;63518;49.572;1.106;2023-04-24T03:37:34;11.73;;;4.40;;
74959;SDS011;63518;49.572;1.106;2023-04-24T03:40:01;11.63;;;4.03;;
74959;SDS011;63518;49.572;1.106;2023-04-24T03:42:28;12.73;;;4.75;;
74959;SDS011;63518;49.572;1.106;2023-04-24T03:44:55;11.05;;;3.85;;
74959;SDS011;63518;49.572;1.106;2023-04-24T03:47:22;11.30;;;5.20;;
74959;SDS011;63518;49.572;1.106;2023-04-24T03:49:49;12.50;;;5.32;;
74959;SDS011;63518;49.572;1.106;2023-04-24T03:52:16;9.27;;;4.00;;
74959;SDS011;63518;49.572;1.106;2023-04-24T03:54:43;11.00;;;4.70;;
74959;SDS011;63518;49.572;1.106;2023-04-24T03:57:09;11.40;;;4.30;;
74959;SDS011;63518;49.572;1.106;2023-04-24T03:59:36;13.95;;;5.03;;
74959;SDS011;63518;49.572;1.106;2023-04-24T04:02:03;11.77;;;4.63;;
74959;SDS011;63518;49.572;1.106;2023-04-24T04:04:30;10.57;;;4.13;;
74959;SDS011;63518;49.572;1.106;2023-04-24T04:07:10;11.50;;;4.10;;
74959;SDS011;63518;49.572;1.106;2023-04-24T04:09:37;14.15;;;5.15;;
74959;SDS011;63518;49.572;1.106;2023-04-24T04:12:04;10.95;;;4.43;;
74959;SDS011;63518;49.572;1.106;2023-04-24T04:14:31;14.57;;;4.32;;
74959;SDS011;63518;49.572;1.106;2023-04-24T04:16:57;10.63;;;4.03;;
74959;SDS011;63518;49.572;1.106;2023-04-24T04:19:24;13.40;;;4.60;;
74959;SDS011;63518;49.572;1.106;2023-04-24T04:21:51;15.85;;;4.75;;
74959;SDS011;63518;49.572;1.106;2023-04-24T04:24:19;13.60;;;5.20;;
74959;SDS011;63518;49.572;1.106;2023-04-24T04:26:50;14.30;;;5.32;;
74959;SDS011;63518;49.572;1.106;2023-04-24T04:29:18;12.27;;;4.78;;
74959;SDS011;63518;49.572;1.106;2023-04-24T04:31:45;10.02;;;3.85;;
74959;SDS011;63518;49.572;1.106;2023-04-24T04:34:12;12.65;;;4.38;;
74959;SDS011;63518;49.572;1.106;2023-04-24T04:36:41;14.90;;;4.32;;
74959;SDS011;63518;49.572;1.106;2023-04-24T04:39:08;14.35;;;5.57;;
74959;SDS011;63518;49.572;1.106;2023-04-24T04:41:34;11.50;;;4.90;;
74959;SDS011;63518;49.572;1.106;2023-04-24T04:44:01;14.13;;;5.28;;
74959;SDS011;63518;49.572;1.106;2023-04-24T04:46:31;8.32;;;3.22;;
74959;SDS011;63518;49.572;1.106;2023-04-24T04:49:02;15.45;;;6.10;;
74959;SDS011;63518;49.572;1.106;2023-04-24T04:51:29;16.40;;;6.03;;
74959;SDS011;63518;49.572;1.106;2023-04-24T04:53:57;17.88;;;5.55;;
74959;SDS011;63518;49.572;1.106;2023-04-24T04:56:24;15.52;;;5.75;;
74959;SDS011;63518;49.572;1.106;2023-04-24T04:58:51;16.83;;;6.03;;
74959;SDS011;63518;49.572;1.106;2023-04-24T05:01:17;15.75;;;5.45;;
74959;SDS011;63518;49.572;1.106;2023-04-24T05:03:44;16.52;;;6.95;;
74959;SDS011;63518;49.572;1.106;2023-04-24T05:06:11;16.05;;;5.63;;
74959;SDS011;63518;49.572;1.106;2023-04-24T05:08:38;14.25;;;6.10;;
74959;SDS011;63518;49.572;1.106;2023-04-24T05:11:05;13.52;;;6.07;;
74959;SDS011;63518;49.572;1.106;2023-04-24T05:13:32;12.63;;;5.80;;
74959;SDS011;63518;49.572;1.106;2023-04-24T05:16:06;14.05;;;5.10;;
74959;SDS011;63518;49.572;1.106;2023-04-24T05:18:33;13.80;;;5.80;;
74959;SDS011;63518;49.572;1.106;2023-04-24T05:21:00;12.07;;;5.38;;
74959;SDS011;63518;49.572;1.106;2023-04-24T05:23:27;14.93;;;5.43;;
74959;SDS011;63518;49.572;1.106;2023-04-24T05:25:54;16.90;;;5.50;;
74959;SDS011;63518;49.572;1.106;2023-04-24T05:28:21;16.23;;;6.35;;
74959;SDS011;63518;49.572;1.106;2023-04-24T05:30:47;13.32;;;5.40;;
74959;SDS011;63518;49.572;1.106;2023-04-24T05:33:14;14.18;;;5.78;;
74959;SDS011;63518;49.572;1.106;2023-04-24T05:35:41;14.75;;;5.75;;
74959;SDS011;63518;49.572;1.106;2023-04-24T05:38:13;16.30;;;6.35;;
74959;SDS011;63518;49.572;1.106;2023-04-24T05:40:40;16.55;;;6.57;;
74959;SDS011;63518;49.572;1.106;2023-04-24T05:43:07;18.50;;;5.95;;
74959;SDS011;63518;49.572;1.106;2023-04-24T05:45:34;18.10;;;7.60;;
74959;SDS011;63518;49.572;1.106;2023-04-24T05:48:03;17.60;;;7.25;;
74959;SDS011;63518;49.572;1.106;2023-04-24T05:50:30;18.27;;;7.65;;
74959;SDS011;63518;49.572;1.106;2023-04-24T05:52:57;10.35;;;4.72;;
74959;SDS011;63518;49.572;1.106;2023-04-24T05:55:29;14.57;;;6.60;;
74959;SDS011;63518;49.572;1.106;2023-04-24T05:57:57;18.63;;;6.60;;
74959;SDS011;63518;49.572;1.106;2023-04-24T06:00:24;18.58;;;8.75;;
74959;SDS011;63518;49.572;1.106;2023-04-24T06:02:51;23.20;;;7.20;;
74959;SDS011;63518;49.572;1.106;2023-04-24T06:05:19;19.13;;;7.18;;
74959;SDS011;63518;49.572;1.106;2023-04-24T06:07:47;13.30;;;5.70;;
74959;SDS011;63518;49.572;1.106;2023-04-24T06:10:14;22.65;;;7.60;;
74959;SDS011;63518;49.572;1.106;2023-04-24T06:12:42;10.25;;;4.10;;
74959;SDS011;63518;49.572;1.106;2023-04-24T06:15:09;17.27;;;5.72;;
74959;SDS011;63518;49.572;1.106;2023-04-24T06:17:36;13.20;;;5.93;;
74959;SDS011;63518;49.572;1.106;2023-04-24T06:20:04;13.43;;;5.78;;
74959;SDS011;63518;49.572;1.106;2023-04-24T06:22:32;17.63;;;5.90;;
74959;SDS011;63518;49.572;1.106;2023-04-24T06:24:59;13.93;;;5.13;;
74959;SDS011;63518;49.572;1.106;2023-04-24T06:27:32;16.85;;;6.43;;
74959;SDS011;63518;49.572;1.106;2023-04-24T06:29:59;15.32;;;5.78;;
74959;SDS011;63518;49.572;1.106;2023-04-24T06:32:29;11.43;;;4.22;;
74959;SDS011;63518;49.572;1.106;2023-04-24T06:35:02;12.15;;;5.82;;
74959;SDS011;63518;49.572;1.106;2023-04-24T06:37:33;16.75;;;6.97;;
74959;SDS011;63518;49.572;1.106;2023-04-24T06:40:10;19.67;;;7.78;;
74959;SDS011;63518;49.572;1.106;2023-04-24T06:42:40;19.40;;;6.03;;
74959;SDS011;63518;49.572;1.106;2023-04-24T06:45:09;17.95;;;6.53;;
74959;SDS011;63518;49.572;1.106;2023-04-24T06:47:38;17.67;;;4.88;;
74959;SDS011;63518;49.572;1.106;2023-04-24T06:50:07;19.30;;;8.55;;
74959;SDS011;63518;49.572;1.106;2023-04-24T06:52:40;15.25;;;6.57;;
74959;SDS011;63518;49.572;1.106;2023-04-24T06:55:13;16.05;;;6.40;;
74959;SDS011;63518;49.572;1.106;2023-04-24T06:57:43;18.10;;;6.88;;
74959;SDS011;63518;49.572;1.106;2023-04-24T07:00:17;18.77;;;8.13;;
74959;SDS011;63518;49.572;1.106;2023-04-24T07:02:46;14.68;;;5.38;;
74959;SDS011;63518;49.572;1.106;2023-04-24T07:05:16;15.73;;;6.47;;
74959;SDS011;63518;49.572;1.106;2023-04-24T07:07:49;10.38;;;4.75;;
74959;SDS011;63518;49.572;1.106;2023-04-24T07:10:17;22.88;;;8.15;;
74959;SDS011;63518;49.572;1.106;2023-04-24T07:12:47;18.02;;;7.47;;
74959;SDS011;63518;49.572;1.106;2023-04-24T07:15:14;21.77;;;7.97;;
74959;SDS011;63518;49.572;1.106;2023-04-24T07:17:42;20.60;;;8.85;;
74959;SDS011;63518;49.572;1.106;2023-04-24T07:20:11;20.42;;;8.25;;
74959;SDS011;63518;49.572;1.106;2023-04-24T07:22:38;20.98;;;8.27;;
74959;SDS011;63518;49.572;1.106;2023-04-24T07:25:05;22.20;;;8.80;;
74959;SDS011;63518;49.572;1.106;2023-04-24T07:27:33;20.98;;;7.70;;
74959;SDS011;63518;49.572;1.106;2023-04-24T07:30:00;15.65;;;7.35;;
74959;SDS011;63518;49.572;1.106;2023-04-24T07:32:27;15.88;;;7.88;;
74959;SDS011;63518;49.572;1.106;2023-04-24T07:34:54;17.23;;;6.00;;
74959;SDS011;63518;49.572;1.106;2023-04-24T07:37:25;18.02;;;8.35;;
74959;SDS011;63518;49.572;1.106;2023-04-24T07:39:53;13.65;;;6.03;;
74959;SDS011;63518;49.572;1.106;2023-04-24T07:42:24;13.93;;;6.18;;
74959;SDS011;63518;49.572;1.106;2023-04-24T07:44:52;14.18;;;6.22;;
74959;SDS011;63518;49.572;1.106;2023-04-24T07:47:19;14.18;;;6.35;;
74959;SDS011;63518;49.572;1.106;2023-04-24T07:49:46;14.50;;;6.28;;
74959;SDS011;63518;49.572;1.106;2023-04-24T07:52:16;17.20;;;7.28;;
74959;SDS011;63518;49.572;1.106;2023-04-24T07:54:43;15.05;;;6.00;;
74959;SDS011;63518;49.572;1.106;2023-04-24T07:57:10;13.63;;;6.45;;
74959;SDS011;63518;49.572;1.106;2023-04-24T07:59:37;14.40;;;5.75;;
74959;SDS011;63518;49.572;1.106;2023-04-24T08:02:04;7.95;;;3.65;;
74959;SDS011;63518;49.572;1.106;2023-04-24T08:04:32;11.27;;;4.95;;
74959;SDS011;63518;49.572;1.106;2023-04-24T08:07:00;12.27;;;5.20;;
74959;SDS011;63518;49.572;1.106;2023-04-24T08:09:26;11.27;;;5.13;;
74959;SDS011;63518;49.572;1.106;2023-04-24T08:11:53;12.23;;;4.75;;
74959;SDS011;63518;49.572;1.106;2023-04-24T08:14:20;15.90;;;6.00;;
74959;SDS011;63518;49.572;1.106;2023-04-24T08:16:47;13.13;;;5.50;;
74959;SDS011;63518;49.572;1.106;2023-04-24T08:19:14;12.55;;;5.68;;
74959;SDS011;63518;49.572;1.106;2023-04-24T08:21:40;15.43;;;4.95;;
74959;SDS011;63518;49.572;1.106;2023-04-24T08:24:07;14.90;;;4.90;;
74959;SDS011;63518;49.572;1.106;2023-04-24T08:26:34;11.82;;;5.20;;
74959;SDS011;63518;49.572;1.106;2023-04-24T08:29:01;16.35;;;6.28;;
74959;SDS011;63518;49.572;1.106;2023-04-24T08:31:28;13.77;;;5.95;;
74959;SDS011;63518;49.572;1.106;2023-04-24T08:33:55;12.15;;;5.07;;
74959;SDS011;63518;49.572;1.106;2023-04-24T08:36:22;14.27;;;5.68;;
74959;SDS011;63518;49.572;1.106;2023-04-24T08:38:58;13.10;;;5.30;;
74959;SDS011;63518;49.572;1.106;2023-04-24T08:41:25;11.20;;;5.28;;
74959;SDS011;63518;49.572;1.106;2023-04-24T08:43:53;13.55;;;5.18;;
74959;SDS011;63518;49.572;1.106;2023-04-24T08:46:21;14.38;;;5.43;;
74959;SDS011;63518;49.572;1.106;2023-04-24T08:48:49;13.35;;;5.68;;
74959;SDS011;63518;49.572;1.106;2023-04-24T08:51:16;11.38;;;4.60;;
74959;SDS011;63518;49.572;1.106;2023-04-24T08:53:44;13.95;;;5.18;;
74959;SDS011;63518;49.572;1.106;2023-04-24T08:56:12;11.68;;;4.82;;
74959;SDS011;63518;49.572;1.106;2023-04-24T08:58:39;14.98;;;6.00;;
74959;SDS011;63518;49.572;1.106;2023-04-24T09:01:07;15.15;;;6.10;;
74959;SDS011;63518;49.572;1.106;2023-04-24T09:03:36;10.90;;;4.63;;
74959;SDS011;63518;49.572;1.106;2023-04-24T09:06:04;13.48;;;6.78;;
74959;SDS011;63518;49.572;1.106;2023-04-24T09:08:34;11.73;;;4.97;;
74959;SDS011;63518;49.572;1.106;2023-04-24T09:11:01;13.30;;;4.80;;
74959;SDS011;63518;49.572;1.106;2023-04-24T09:13:30;11.88;;;3.90;;
74959;SDS011;63518;49.572;1.106;2023-04-24T09:15:56;12.93;;;5.45;;
74959;SDS011;63518;49.572;1.106;2023-04-24T09:18:23;13.70;;;5.30;;
74959;SDS011;63518;49.572;1.106;2023-04-24T09:21:00;8.23;;;3.85;;
74959;SDS011;63518;49.572;1.106;2023-04-24T09:23:33;8.70;;;3.83;;
74959;SDS011;63518;49.572;1.106;2023-04-24T09:26:00;9.75;;;3.90;;
74959;SDS011;63518;49.572;1.106;2023-04-24T09:31:14;11.10;;;5.63;;
74959;SDS011;63518;49.572;1.106;2023-04-24T09:33:54;13.20;;;5.60;;
74959;SDS011;63518;49.572;1.106;2023-04-24T09:38:59;10.93;;;4.32;;
74959;SDS011;63518;49.572;1.106;2023-04-24T09:41:27;14.45;;;4.78;;
74959;SDS011;63518;49.572;1.106;2023-04-24T09:43:55;10.40;;;4.70;;
74959;SDS011;63518;49.572;1.106;2023-04-24T09:46:29;7.25;;;3.72;;
74959;SDS011;63518;49.572;1.106;2023-04-24T09:48:58;12.15;;;6.00;;
74959;SDS011;63518;49.572;1.106;2023-04-24T09:51:35;8.13;;;3.67;;
74959;SDS011;63518;49.572;1.106;2023-04-24T09:54:04;6.85;;;3.30;;
74959;SDS011;63518;49.572;1.106;2023-04-24T09:56:41;13.13;;;5.28;;
74959;SDS011;63518;49.572;1.106;2023-04-24T09:59:10;9.65;;;3.65;;
74959;SDS011;63518;49.572;1.106;2023-04-24T10:01:38;11.32;;;4.93;;
74959;SDS011;63518;49.572;1.106;2023-04-24T10:04:15;11.90;;;4.10;;
74959;SDS011;63518;49.572;1.106;2023-04-24T10:06:47;7.35;;;2.67;;
74959;SDS011;63518;49.572;1.106;2023-04-24T10:09:18;10.30;;;4.22;;
74959;SDS011;63518;49.572;1.106;2023-04-24T10:11:47;10.82;;;5.15;;
74959;SDS011;63518;49.572;1.106;2023-04-24T10:14:17;12.70;;;5.22;;
74959;SDS011;63518;49.572;1.106;2023-04-24T10:16:45;12.07;;;4.43;;
74959;SDS011;63518;49.572;1.106;2023-04-24T10:19:15;13.38;;;5.68;;
74959;SDS011;63518;49.572;1.106;2023-04-24T10:21:44;11.25;;;5.05;;
74959;SDS011;63518;49.572;1.106;2023-04-24T10:24:15;14.38;;;5.90;;
74959;SDS011;63518;49.572;1.106;2023-04-24T10:26:47;12.23;;;4.30;;
74959;SDS011;63518;49.572;1.106;2023-04-24T10:29:16;13.88;;;4.85;;
74959;SDS011;63518;49.572;1.106;2023-04-24T10:31:44;5.57;;;2.42;;
74959;SDS011;63518;49.572;1.106;2023-04-24T10:34:15;9.38;;;4.07;;
74959;SDS011;63518;49.572;1.106;2023-04-24T10:36:46;10.70;;;5.07;;
74959;SDS011;63518;49.572;1.106;2023-04-24T10:39:17;8.20;;;3.60;;
74959;SDS011;63518;49.572;1.106;2023-04-24T10:41:53;7.35;;;3.28;;
74959;SDS011;63518;49.572;1.106;2023-04-24T10:44:24;10.27;;;4.57;;
74959;SDS011;63518;49.572;1.106;2023-04-24T10:46:55;14.70;;;4.82;;
74959;SDS011;63518;49.572;1.106;2023-04-24T10:49:30;11.85;;;4.55;;
74959;SDS011;63518;49.572;1.106;2023-04-24T10:52:05;8.75;;;4.25;;
74959;SDS011;63518;49.572;1.106;2023-04-24T10:54:36;9.95;;;4.10;;
74959;SDS011;63518;49.572;1.106;2023-04-24T10:59:46;11.43;;;4.40;;
74959;SDS011;63518;49.572;1.106;2023-04-24T11:02:15;4.22;;;1.67;;
74959;SDS011;63518;49.572;1.106;2023-04-24T11:04:52;11.93;;;4.57;;
74959;SDS011;63518;49.572;1.106;2023-04-24T11:07:29;10.00;;;3.95;;
74959;SDS011;63518;49.572;1.106;2023-04-24T11:10:00;7.47;;;3.35;;
74959;SDS011;63518;49.572;1.106;2023-04-24T11:12:36;10.52;;;3.83;;
74959;SDS011;63518;49.572;1.106;2023-04-24T11:15:04;8.40;;;3.95;;
74959;SDS011;63518;49.572;1.106;2023-04-24T11:17:38;11.75;;;5.00;;
74959;SDS011;63518;49.572;1.106;2023-04-24T11:20:07;7.40;;;3.50;;
74959;SDS011;63518;49.572;1.106;2023-04-24T11:22:52;10.75;;;4.85;;
74959;SDS011;63518;49.572;1.106;2023-04-24T11:25:24;9.50;;;4.15;;
74959;SDS011;63518;49.572;1.106;2023-04-24T11:28:02;9.82;;;3.80;;
74959;SDS011;63518;49.572;1.106;2023-04-24T11:30:40;8.38;;;3.47;;
74959;SDS011;63518;49.572;1.106;2023-04-24T11:33:07;10.55;;;4.82;;
74959;SDS011;63518;49.572;1.106;2023-04-24T11:35:35;11.93;;;4.75;;
74959;SDS011;63518;49.572;1.106;2023-04-24T11:38:07;8.32;;;3.55;;
74959;SDS011;63518;49.572;1.106;2023-04-24T11:40:50;9.77;;;3.70;;
74959;SDS011;63518;49.572;1.106;2023-04-24T11:43:18;9.05;;;3.92;;
74959;SDS011;63518;49.572;1.106;2023-04-24T11:45:50;7.47;;;3.53;;
74959;SDS011;63518;49.572;1.106;2023-04-24T11:48:25;8.13;;;3.92;;
74959;SDS011;63518;49.572;1.106;2023-04-24T11:50:52;7.35;;;3.35;;
74959;SDS011;63518;49.572;1.106;2023-04-24T11:53:20;10.50;;;3.97;;
74959;SDS011;63518;49.572;1.106;2023-04-24T11:55:48;7.70;;;3.42;;
74959;SDS011;63518;49.572;1.106;2023-04-24T11:58:15;8.85;;;3.63;;
74959;SDS011;63518;49.572;1.106;2023-04-24T12:00:58;10.45;;;4.25;;
74959;SDS011;63518;49.572;1.106;2023-04-24T12:03:27;7.90;;;3.03;;
74959;SDS011;63518;49.572;1.106;2023-04-24T12:06:07;9.35;;;3.50;;
74959;SDS011;63518;49.572;1.106;2023-04-24T12:08:36;7.53;;;3.58;;
74959;SDS011;63518;49.572;1.106;2023-04-24T12:11:04;8.48;;;4.07;;
74959;SDS011;63518;49.572;1.106;2023-04-24T12:13:35;6.43;;;2.42;;
74959;SDS011;63518;49.572;1.106;2023-04-24T12:16:03;7.60;;;2.70;;
74959;SDS011;63518;49.572;1.106;2023-04-24T12:18:31;8.77;;;3.25;;
74959;SDS011;63518;49.572;1.106;2023-04-24T12:21:17;7.30;;;2.78;;
74959;SDS011;63518;49.572;1.106;2023-04-24T12:23:48;9.40;;;2.50;;
74959;SDS011;63518;49.572;1.106;2023-04-24T12:26:17;9.27;;;2.70;;
74959;SDS011;63518;49.572;1.106;2023-04-24T12:28:46;9.15;;;2.90;;
74959;SDS011;63518;49.572;1.106;2023-04-24T12:31:15;6.85;;;2.78;;
74959;SDS011;63518;49.572;1.106;2023-04-24T12:33:43;9.05;;;3.40;;
74959;SDS011;63518;49.572;1.106;2023-04-24T12:36:10;5.43;;;2.17;;
74959;SDS011;63518;49.572;1.106;2023-04-24T12:38:38;7.00;;;2.67;;
74959;SDS011;63518;49.572;1.106;2023-04-24T12:41:11;7.43;;;2.75;;
74959;SDS011;63518;49.572;1.106;2023-04-24T12:43:50;6.30;;;2.45;;
74959;SDS011;63518;49.572;1.106;2023-04-24T12:46:18;6.47;;;2.47;;
74959;SDS011;63518;49.572;1.106;2023-04-24T12:48:47;6.35;;;2.08;;
74959;SDS011;63518;49.572;1.106;2023-04-24T12:51:14;7.20;;;2.80;;
74959;SDS011;63518;49.572;1.106;2023-04-24T12:53:41;6.97;;;3.15;;
74959;SDS011;63518;49.572;1.106;2023-04-24T15:18:14;7.20;;;2.78;;
74959;SDS011;63518;49.572;1.106;2023-04-24T15:20:41;6.70;;;2.60;;
74959;SDS011;63518;49.572;1.106;2023-04-24T15:23:08;6.57;;;3.00;;
74959;SDS011;63518;49.572;1.106;2023-04-24T15:42:44;6.63;;;2.42;;
74959;SDS011;63518;49.572;1.106;2023-04-24T15:45:11;6.70;;;2.50;;
74959;SDS011;63518;49.572;1.106;2023-04-24T15:47:38;8.10;;;2.83;;
74959;SDS011;63518;49.572;1.106;2023-04-24T15:50:06;7.00;;;2.17;;
74959;SDS011;63518;49.572;1.106;2023-04-24T15:52:40;7.85;;;1.95;;
74959;SDS011;63518;49.572;1.106;2023-04-24T15:55:07;6.22;;;2.60;;
74959;SDS011;63518;49.572;1.106;2023-04-24T15:57:34;6.30;;;2.88;;
74959;SDS011;63518;49.572;1.106;2023-04-24T16:00:01;6.50;;;2.75;;
74959;SDS011;63518;49.572;1.106;2023-04-24T16:02:32;7.20;;;2.90;;
74959;SDS011;63518;49.572;1.106;2023-04-24T16:04:59;6.32;;;2.72;;
74959;SDS011;63518;49.572;1.106;2023-04-24T16:07:26;6.95;;;2.40;;
74959;SDS011;63518;49.572;1.106;2023-04-24T16:09:53;6.13;;;2.85;;
74959;SDS011;63518;49.572;1.106;2023-04-24T16:12:20;6.22;;;2.35;;
74959;SDS011;63518;49.572;1.106;2023-04-24T16:14:46;5.55;;;2.13;;
74959;SDS011;63518;49.572;1.106;2023-04-24T16:17:13;6.30;;;2.60;;
74959;SDS011;63518;49.572;1.106;2023-04-24T16:19:40;6.32;;;2.58;;
74959;SDS011;63518;49.572;1.106;2023-04-24T16:22:06;6.65;;;2.80;;
74959;SDS011;63518;49.572;1.106;2023-04-24T16:24:33;5.88;;;2.53;;
74959;SDS011;63518;49.572;1.106;2023-04-24T16:27:00;6.70;;;2.22;;
74959;SDS011;63518;49.572;1.106;2023-04-24T16:29:27;6.22;;;2.47;;
74959;SDS011;63518;49.572;1.106;2023-04-24T16:31:54;7.10;;;2.75;;
74959;SDS011;63518;49.572;1.106;2023-04-24T16:34:21;6.13;;;2.22;;
74959;SDS011;63518;49.572;1.106;2023-04-24T16:36:47;5.72;;;2.30;;
74959;SDS011;63518;49.572;1.106;2023-04-24T16:39:14;6.68;;;2.53;;
74959;SDS011;63518;49.572;1.106;2023-04-24T16:41:41;7.47;;;2.63;;
74959;SDS011;63518;49.572;1.106;2023-04-24T16:44:08;7.75;;;2.90;;
74959;SDS011;63518;49.572;1.106;2023-04-24T16:46:35;6.85;;;2.90;;
74959;SDS011;63518;49.572;1.106;2023-04-24T16:49:02;6.45;;;2.80;;
74959;SDS011;63518;49.572;1.106;2023-04-24T16:51:28;6.05;;;2.30;;
74959;SDS011;63518;49.572;1.106;2023-04-24T16:53:55;5.93;;;2.47;;
74959;SDS011;63518;49.572;1.106;2023-04-24T16:56:22;5.97;;;2.65;;
74959;SDS011;63518;49.572;1.106;2023-04-24T16:58:49;7.78;;;2.80;;
74959;SDS011;63518;49.572;1.106;2023-04-24T17:01:16;7.53;;;3.10;;
74959;SDS011;63518;49.572;1.106;2023-04-24T17:03:43;8.52;;;3.85;;
74959;SDS011;63518;49.572;1.106;2023-04-24T17:06:11;6.55;;;2.90;;
74959;SDS011;63518;49.572;1.106;2023-04-24T17:08:38;6.60;;;3.03;;
74959;SDS011;63518;49.572;1.106;2023-04-24T17:11:04;8.40;;;3.08;;
74959;SDS011;63518;49.572;1.106;2023-04-24T17:13:31;6.28;;;2.97;;
74959;SDS011;63518;49.572;1.106;2023-04-24T17:15:58;6.03;;;2.80;;
74959;SDS011;63518;49.572;1.106;2023-04-24T17:18:25;7.15;;;2.53;;
74959;SDS011;63518;49.572;1.106;2023-04-24T17:20:52;8.70;;;2.70;;
74959;SDS011;63518;49.572;1.106;2023-04-24T17:23:19;6.63;;;2.00;;
74959;SDS011;63518;49.572;1.106;2023-04-24T17:25:45;8.98;;;2.72;;
74959;SDS011;63518;49.572;1.106;2023-04-24T17:28:26;6.88;;;2.58;;
74959;SDS011;63518;49.572;1.106;2023-04-24T17:30:54;6.68;;;2.30;;
74959;SDS011;63518;49.572;1.106;2023-04-24T17:33:24;7.95;;;2.38;;
74959;SDS011;63518;49.572;1.106;2023-04-24T17:35:53;7.35;;;2.63;;